sensor_id;sensor_type;location;lat;lon;timestamp;pressure;altitude;pressure_sealevel;temperature;humidity
56831;BME280;42713;42.676;23.352;2023-05-08T00:01:04;94930.59;;;17.17;47.06
56831;BME280;42713;42.676;23.352;2023-05-08T00:03:30;94937.78;;;17.11;47.22
56831;BME280;42713;42.676;23.352;2023-05-08T00:05:56;94943.38;;;17.09;47.02
56831;BME280;42713;42.676;23.352;2023-05-08T00:08:21;94935.97;;;17.06;47.07
56831;BME280;42713;42.676;23.352;2023-05-08T00:10:46;94936.50;;;17.08;46.91
56831;BME280;42713;42.676;23.352;2023-05-08T00:13:12;94938.63;;;17.06;46.85
56831;BME280;42713;42.676;23.352;2023-05-08T00:15:37;94938.09;;;17.04;46.99
56831;BME280;42713;42.676;23.352;2023-05-08T00:18:03;94940.84;;;16.94;47.43
56831;BME280;42713;42.676;23.352;2023-05-08T00:20:29;94942.69;;;16.93;47.24
56831;BME280;42713;42.676;23.352;2023-05-08T00:22:55;94935.31;;;16.85;47.97
56831;BME280;42713;42.676;23.352;2023-05-08T00:25:22;94934.81;;;16.83;47.74
56831;BME280;42713;42.676;23.352;2023-05-08T00:27:47;94943.00;;;16.81;47.91
56831;BME280;42713;42.676;23.352;2023-05-08T00:30:13;94936.41;;;16.79;47.94
56831;BME280;42713;42.676;23.352;2023-05-08T00:32:39;94947.00;;;16.79;48.72
56831;BME280;42713;42.676;23.352;2023-05-08T00:35:04;94953.13;;;16.74;48.48
56831;BME280;42713;42.676;23.352;2023-05-08T00:37:30;94953.41;;;16.73;48.62
56831;BME280;42713;42.676;23.352;2023-05-08T00:39:55;94947.91;;;16.64;48.53
56831;BME280;42713;42.676;23.352;2023-05-08T00:42:21;94949.47;;;16.65;49.02
56831;BME280;42713;42.676;23.352;2023-05-08T00:44:46;94946.88;;;16.60;48.96
56831;BME280;42713;42.676;23.352;2023-05-08T00:47:12;94940.84;;;16.54;49.25
56831;BME280;42713;42.676;23.352;2023-05-08T00:49:38;94953.81;;;16.51;49.47
56831;BME280;42713;42.676;23.352;2023-05-08T00:52:04;94955.13;;;16.48;49.77
56831;BME280;42713;42.676;23.352;2023-05-08T00:54:34;94953.06;;;16.45;50.15
56831;BME280;42713;42.676;23.352;2023-05-08T00:57:02;94952.28;;;16.39;49.66
56831;BME280;42713;42.676;23.352;2023-05-08T00:59:28;94956.00;;;16.38;49.27
56831;BME280;42713;42.676;23.352;2023-05-08T01:01:54;94954.41;;;16.32;49.55
56831;BME280;42713;42.676;23.352;2023-05-08T01:04:20;94950.75;;;16.28;49.23
56831;BME280;42713;42.676;23.352;2023-05-08T01:06:48;94953.41;;;16.28;49.43
56831;BME280;42713;42.676;23.352;2023-05-08T01:09:14;94955.81;;;16.24;49.66
56831;BME280;42713;42.676;23.352;2023-05-08T01:23:28;94959.31;;;16.09;50.30
56831;BME280;42713;42.676;23.352;2023-05-08T01:29:07;94963.81;;;15.98;51.25
56831;BME280;42713;42.676;23.352;2023-05-08T01:34:14;94952.22;;;15.94;50.92
56831;BME280;42713;42.676;23.352;2023-05-08T01:37:00;94958.84;;;15.92;50.98
56831;BME280;42713;42.676;23.352;2023-05-08T01:42:17;94958.31;;;15.79;51.57
56831;BME280;42713;42.676;23.352;2023-05-08T01:44:52;94948.28;;;15.76;51.65
56831;BME280;42713;42.676;23.352;2023-05-08T01:47:23;94950.97;;;15.71;51.87
56831;BME280;42713;42.676;23.352;2023-05-08T01:49:57;94934.88;;;15.57;52.31
56831;BME280;42713;42.676;23.352;2023-05-08T01:52:35;94944.63;;;15.67;52.35
56831;BME280;42713;42.676;23.352;2023-05-08T01:55:09;94942.25;;;15.65;52.06
56831;BME280;42713;42.676;23.352;2023-05-08T01:57:37;94942.78;;;15.67;52.32
56831;BME280;42713;42.676;23.352;2023-05-08T02:00:05;94945.41;;;15.62;52.74
56831;BME280;42713;42.676;23.352;2023-05-08T02:02:33;94949.66;;;15.63;52.56
56831;BME280;42713;42.676;23.352;2023-05-08T02:05:02;94946.22;;;15.57;52.85
56831;BME280;42713;42.676;23.352;2023-05-08T02:07:29;94943.34;;;15.54;52.67
56831;BME280;42713;42.676;23.352;2023-05-08T02:09:56;94952.06;;;15.49;52.85
56831;BME280;42713;42.676;23.352;2023-05-08T02:12:23;94948.88;;;15.47;52.86
56831;BME280;42713;42.676;23.352;2023-05-08T02:14:51;94948.34;;;15.45;53.02
56831;BME280;42713;42.676;23.352;2023-05-08T02:17:19;94946.53;;;15.40;53.19
56831;BME280;42713;42.676;23.352;2023-05-08T02:19:46;94951.53;;;15.37;53.52
56831;BME280;42713;42.676;23.352;2023-05-08T02:22:14;94957.63;;;15.32;53.85
56831;BME280;42713;42.676;23.352;2023-05-08T02:24:44;94948.38;;;15.24;54.11
56831;BME280;42713;42.676;23.352;2023-05-08T02:27:11;94958.97;;;15.19;54.18
56831;BME280;42713;42.676;23.352;2023-05-08T02:29:37;94959.50;;;15.21;53.26
56831;BME280;42713;42.676;23.352;2023-05-08T02:32:05;94960.00;;;15.18;53.85
56831;BME280;42713;42.676;23.352;2023-05-08T02:34:33;94953.16;;;15.12;53.60
56831;BME280;42713;42.676;23.352;2023-05-08T02:37:00;94952.13;;;15.03;53.48
56831;BME280;42713;42.676;23.352;2023-05-08T02:39:29;94954.22;;;14.96;53.53
56831;BME280;42713;42.676;23.352;2023-05-08T02:41:56;94956.03;;;14.90;53.59
56831;BME280;42713;42.676;23.352;2023-05-08T02:44:22;94959.47;;;14.85;53.75
56831;BME280;42713;42.676;23.352;2023-05-08T02:47:07;94957.13;;;14.78;54.28
56831;BME280;42713;42.676;23.352;2023-05-08T02:50:08;94958.91;;;14.57;55.53
56831;BME280;42713;42.676;23.352;2023-05-08T02:52:54;94967.06;;;14.61;55.44
56831;BME280;42713;42.676;23.352;2023-05-08T02:55:51;94974.19;;;14.60;55.72
56831;BME280;42713;42.676;23.352;2023-05-08T02:59:00;94972.06;;;14.57;55.57
56831;BME280;42713;42.676;23.352;2023-05-08T03:01:36;94971.28;;;14.46;55.81
56831;BME280;42713;42.676;23.352;2023-05-08T03:04:08;94963.63;;;14.50;55.32
56831;BME280;42713;42.676;23.352;2023-05-08T03:06:41;94972.03;;;14.47;55.43
56831;BME280;42713;42.676;23.352;2023-05-08T03:09:17;94971.53;;;14.55;54.77
56831;BME280;42713;42.676;23.352;2023-05-08T03:11:46;94962.84;;;14.50;55.59
56831;BME280;42713;42.676;23.352;2023-05-08T03:14:15;94967.59;;;14.47;55.97
56831;BME280;42713;42.676;23.352;2023-05-08T03:16:44;94969.16;;;14.48;56.81
56831;BME280;42713;42.676;23.352;2023-05-08T03:19:29;94961.47;;;14.37;57.14
56831;BME280;42713;42.676;23.352;2023-05-08T03:21:56;94967.81;;;14.36;56.87
56831;BME280;42713;42.676;23.352;2023-05-08T03:24:23;94978.88;;;14.32;56.30
56831;BME280;42713;42.676;23.352;2023-05-08T03:26:50;94983.59;;;14.30;57.33
56831;BME280;42713;42.676;23.352;2023-05-08T03:29:17;94974.88;;;14.20;57.43
56831;BME280;42713;42.676;23.352;2023-05-08T03:31:43;94975.69;;;14.25;56.94
56831;BME280;42713;42.676;23.352;2023-05-08T03:34:11;94982.53;;;14.26;57.51
56831;BME280;42713;42.676;23.352;2023-05-08T03:36:37;94985.16;;;14.26;56.88
56831;BME280;42713;42.676;23.352;2023-05-08T03:39:03;94990.94;;;14.18;57.12
56831;BME280;42713;42.676;23.352;2023-05-08T03:41:29;94981.44;;;14.17;57.36
56831;BME280;42713;42.676;23.352;2023-05-08T03:43:56;94978.28;;;14.15;57.29
56831;BME280;42713;42.676;23.352;2023-05-08T03:46:22;94978.56;;;14.19;57.28
56831;BME280;42713;42.676;23.352;2023-05-08T03:48:49;94985.44;;;14.20;57.30
56831;BME280;42713;42.676;23.352;2023-05-08T03:51:16;94989.38;;;14.22;57.27
56831;BME280;42713;42.676;23.352;2023-05-08T03:53:41;94983.59;;;14.25;57.37
56831;BME280;42713;42.676;23.352;2023-05-08T03:56:07;94996.78;;;14.25;57.32
56831;BME280;42713;42.676;23.352;2023-05-08T04:01:15;94989.16;;;14.34;56.34
56831;BME280;42713;42.676;23.352;2023-05-08T04:03:52;94987.31;;;14.35;56.49
56831;BME280;42713;42.676;23.352;2023-05-08T04:06:36;94996.28;;;14.39;56.23
56831;BME280;42713;42.676;23.352;2023-05-08T04:09:07;94995.22;;;14.40;56.53
56831;BME280;42713;42.676;23.352;2023-05-08T04:12:02;94989.44;;;14.43;56.87
56831;BME280;42713;42.676;23.352;2023-05-08T04:14:36;95001.03;;;14.47;57.37
56831;BME280;42713;42.676;23.352;2023-05-08T04:17:08;94995.00;;;14.46;56.97
56831;BME280;42713;42.676;23.352;2023-05-08T04:19:37;95007.38;;;14.51;56.74
56831;BME280;42713;42.676;23.352;2023-05-08T04:22:06;95008.44;;;14.50;57.14
56831;BME280;42713;42.676;23.352;2023-05-08T04:24:34;95008.72;;;14.48;56.53
56831;BME280;42713;42.676;23.352;2023-05-08T04:27:02;95005.25;;;14.43;56.99
56831;BME280;42713;42.676;23.352;2023-05-08T04:29:29;95004.72;;;14.46;57.52
56831;BME280;42713;42.676;23.352;2023-05-08T04:31:55;95003.41;;;14.43;57.53
56831;BME280;42713;42.676;23.352;2023-05-08T04:34:22;95006.06;;;14.48;57.16
56831;BME280;42713;42.676;23.352;2023-05-08T04:36:47;95003.16;;;14.55;56.58
56831;BME280;42713;42.676;23.352;2023-05-08T04:39:13;95003.16;;;14.55;55.80
56831;BME280;42713;42.676;23.352;2023-05-08T04:41:38;95009.50;;;14.59;55.81
56831;BME280;42713;42.676;23.352;2023-05-08T04:44:04;95002.69;;;14.63;55.87
56831;BME280;42713;42.676;23.352;2023-05-08T04:46:31;94995.84;;;14.68;55.98
56831;BME280;42713;42.676;23.352;2023-05-08T04:48:56;94996.66;;;14.73;55.53
56831;BME280;42713;42.676;23.352;2023-05-08T04:51:22;94984.78;;;14.71;55.56
56831;BME280;42713;42.676;23.352;2023-05-08T04:53:47;94987.69;;;14.74;56.66
56831;BME280;42713;42.676;23.352;2023-05-08T04:56:13;94996.13;;;14.82;57.43
56831;BME280;42713;42.676;23.352;2023-05-08T04:58:38;94986.66;;;14.86;56.34
56831;BME280;42713;42.676;23.352;2023-05-08T05:01:04;94986.13;;;14.89;56.30
56831;BME280;42713;42.676;23.352;2023-05-08T05:03:30;94984.81;;;14.91;55.99
56831;BME280;42713;42.676;23.352;2023-05-08T05:05:57;94988.50;;;14.96;56.19
56831;BME280;42713;42.676;23.352;2023-05-08T05:08:23;94984.28;;;15.00;56.38
56831;BME280;42713;42.676;23.352;2023-05-08T05:10:48;94985.59;;;15.02;56.09
56831;BME280;42713;42.676;23.352;2023-05-08T05:13:14;94981.41;;;15.06;56.20
56831;BME280;42713;42.676;23.352;2023-05-08T05:15:41;94976.91;;;15.12;56.48
56831;BME280;42713;42.676;23.352;2023-05-08T05:18:07;94980.59;;;15.16;55.93
56831;BME280;42713;42.676;23.352;2023-05-08T05:20:32;94984.81;;;15.17;55.41
56831;BME280;42713;42.676;23.352;2023-05-08T05:22:58;94973.97;;;15.19;55.32
56831;BME280;42713;42.676;23.352;2023-05-08T05:25:23;94979.00;;;15.20;55.09
56831;BME280;42713;42.676;23.352;2023-05-08T05:27:49;94973.75;;;15.20;54.88
56831;BME280;42713;42.676;23.352;2023-05-08T05:30:14;94972.41;;;15.28;55.00
56831;BME280;42713;42.676;23.352;2023-05-08T05:32:40;94975.03;;;15.33;54.91
56831;BME280;42713;42.676;23.352;2023-05-08T05:35:06;94977.66;;;15.38;55.26
56831;BME280;42713;42.676;23.352;2023-05-08T05:37:31;94979.25;;;15.45;55.18
56831;BME280;42713;42.676;23.352;2023-05-08T05:39:57;94979.50;;;15.48;56.03
56831;BME280;42713;42.676;23.352;2023-05-08T05:42:23;94974.22;;;15.53;55.68
56831;BME280;42713;42.676;23.352;2023-05-08T05:44:48;94971.81;;;15.62;55.65
56831;BME280;42713;42.676;23.352;2023-05-08T05:47:22;94977.88;;;15.63;55.13
56831;BME280;42713;42.676;23.352;2023-05-08T05:49:48;94972.88;;;15.66;54.89
56831;BME280;42713;42.676;23.352;2023-05-08T05:52:13;94971.56;;;15.69;54.68
56831;BME280;42713;42.676;23.352;2023-05-08T05:54:39;94971.00;;;15.77;54.69
56831;BME280;42713;42.676;23.352;2023-05-08T05:57:06;94964.13;;;15.81;54.63
56831;BME280;42713;42.676;23.352;2023-05-08T05:59:32;94974.16;;;15.84;53.59
56831;BME280;42713;42.676;23.352;2023-05-08T06:01:57;94969.41;;;15.86;54.09
56831;BME280;42713;42.676;23.352;2023-05-08T06:04:25;94967.28;;;15.94;54.09
56831;BME280;42713;42.676;23.352;2023-05-08T06:07:16;94962.50;;;15.96;53.83
56831;BME280;42713;42.676;23.352;2023-05-08T06:09:42;94959.31;;;16.04;54.26
56831;BME280;42713;42.676;23.352;2023-05-08T06:12:08;94958.50;;;16.09;54.48
56831;BME280;42713;42.676;23.352;2023-05-08T06:14:33;94956.09;;;16.12;54.04
56831;BME280;42713;42.676;23.352;2023-05-08T06:16:59;94954.50;;;16.16;53.92
56831;BME280;42713;42.676;23.352;2023-05-08T06:19:25;94957.91;;;16.22;54.81
56831;BME280;42713;42.676;23.352;2023-05-08T06:21:51;94956.56;;;16.25;53.97
56831;BME280;42713;42.676;23.352;2023-05-08T06:24:16;94958.16;;;16.31;54.29
56831;BME280;42713;42.676;23.352;2023-05-08T06:26:42;94954.69;;;16.36;53.83
56831;BME280;42713;42.676;23.352;2023-05-08T06:29:07;94959.16;;;16.40;54.16
56831;BME280;42713;42.676;23.352;2023-05-08T06:31:32;94956.22;;;16.42;53.73
56831;BME280;42713;42.676;23.352;2023-05-08T06:33:58;94960.69;;;16.46;53.17
56831;BME280;42713;42.676;23.352;2023-05-08T06:36:23;94958.00;;;16.52;53.49
56831;BME280;42713;42.676;23.352;2023-05-08T06:38:49;94960.63;;;16.57;53.45
56831;BME280;42713;42.676;23.352;2023-05-08T06:41:14;94954.81;;;16.60;52.21
56831;BME280;42713;42.676;23.352;2023-05-08T06:43:40;94959.06;;;16.56;51.66
56831;BME280;42713;42.676;23.352;2023-05-08T06:46:05;94962.47;;;16.61;52.16
56831;BME280;42713;42.676;23.352;2023-05-08T06:48:31;94956.06;;;16.68;53.93
56831;BME280;42713;42.676;23.352;2023-05-08T06:50:57;94965.22;;;16.80;54.11
56831;BME280;42713;42.676;23.352;2023-05-08T06:53:23;94952.50;;;16.88;54.99
56831;BME280;42713;42.676;23.352;2023-05-08T06:55:48;94961.22;;;16.93;53.24
56831;BME280;42713;42.676;23.352;2023-05-08T06:58:14;94959.56;;;17.03;54.99
56831;BME280;42713;42.676;23.352;2023-05-08T07:00:39;94958.44;;;17.09;55.42
56831;BME280;42713;42.676;23.352;2023-05-08T07:03:06;94957.59;;;17.14;55.28
56831;BME280;42713;42.676;23.352;2023-05-08T07:05:31;94963.19;;;17.12;54.80
56831;BME280;42713;42.676;23.352;2023-05-08T07:07:57;94970.56;;;17.15;54.25
56831;BME280;42713;42.676;23.352;2023-05-08T07:10:23;94969.72;;;17.20;54.36
56831;BME280;42713;42.676;23.352;2023-05-08T07:12:56;94973.94;;;17.26;55.47
56831;BME280;42713;42.676;23.352;2023-05-08T07:15:22;94972.63;;;17.23;55.47
56831;BME280;42713;42.676;23.352;2023-05-08T07:17:47;94973.41;;;17.24;54.27
56831;BME280;42713;42.676;23.352;2023-05-08T07:20:13;94972.88;;;17.22;53.70
56831;BME280;42713;42.676;23.352;2023-05-08T07:22:38;94972.06;;;17.26;55.74
56831;BME280;42713;42.676;23.352;2023-05-08T07:25:04;94973.13;;;17.25;54.18
56831;BME280;42713;42.676;23.352;2023-05-08T07:27:30;94972.13;;;17.21;54.66
56831;BME280;42713;42.676;23.352;2023-05-08T07:29:55;94968.66;;;17.21;53.77
56831;BME280;42713;42.676;23.352;2023-05-08T07:32:23;94968.75;;;17.10;51.27
56831;BME280;42713;42.676;23.352;2023-05-08T07:34:49;94966.47;;;16.99;52.82
56831;BME280;42713;42.676;23.352;2023-05-08T07:37:14;94975.69;;;17.01;54.44
56831;BME280;42713;42.676;23.352;2023-05-08T07:39:39;94968.81;;;17.05;54.40
56831;BME280;42713;42.676;23.352;2023-05-08T07:42:05;94971.91;;;17.13;56.48
56831;BME280;42713;42.676;23.352;2023-05-08T07:44:31;94965.25;;;17.20;53.94
56831;BME280;42713;42.676;23.352;2023-05-08T07:46:59;94966.75;;;17.26;54.09
56831;BME280;42713;42.676;23.352;2023-05-08T07:49:25;94972.25;;;17.35;54.16
56831;BME280;42713;42.676;23.352;2023-05-08T07:51:50;94973.59;;;17.33;51.68
56831;BME280;42713;42.676;23.352;2023-05-08T07:54:16;94974.94;;;17.30;52.69
56831;BME280;42713;42.676;23.352;2023-05-08T07:56:42;94974.38;;;17.33;52.04
56831;BME280;42713;42.676;23.352;2023-05-08T07:59:07;94975.03;;;17.20;50.56
56831;BME280;42713;42.676;23.352;2023-05-08T08:01:33;94976.94;;;17.14;50.46
56831;BME280;42713;42.676;23.352;2023-05-08T08:03:59;94982.72;;;17.16;51.89
56831;BME280;42713;42.676;23.352;2023-05-08T08:06:24;94984.13;;;17.08;51.01
56831;BME280;42713;42.676;23.352;2023-05-08T08:08:50;94975.44;;;17.03;51.81
56831;BME280;42713;42.676;23.352;2023-05-08T08:11:15;94976.50;;;17.02;53.57
56831;BME280;42713;42.676;23.352;2023-05-08T08:13:41;94976.28;;;16.98;51.68
56831;BME280;42713;42.676;23.352;2023-05-08T08:16:06;94973.53;;;17.08;55.49
56831;BME280;42713;42.676;23.352;2023-05-08T08:18:35;94982.47;;;17.18;53.88
56831;BME280;42713;42.676;23.352;2023-05-08T08:21:04;94982.72;;;17.16;52.52
56831;BME280;42713;42.676;23.352;2023-05-08T08:23:30;94973.22;;;17.15;51.54
56831;BME280;42713;42.676;23.352;2023-05-08T08:25:56;94973.81;;;17.07;52.52
56831;BME280;42713;42.676;23.352;2023-05-08T08:28:22;94983.31;;;17.13;52.67
56831;BME280;42713;42.676;23.352;2023-05-08T08:30:47;94971.06;;;17.17;54.64
56831;BME280;42713;42.676;23.352;2023-05-08T08:33:13;94964.41;;;17.25;53.69
56831;BME280;42713;42.676;23.352;2023-05-08T08:35:38;94972.47;;;17.39;53.63
56831;BME280;42713;42.676;23.352;2023-05-08T08:38:04;94972.38;;;17.49;54.40
56831;BME280;42713;42.676;23.352;2023-05-08T08:40:29;94955.13;;;17.57;52.66
56831;BME280;42713;42.676;23.352;2023-05-08T08:42:55;94961.50;;;17.51;51.91
56831;BME280;42713;42.676;23.352;2023-05-08T08:45:20;94957.03;;;17.51;53.26
56831;BME280;42713;42.676;23.352;2023-05-08T08:47:47;94947.91;;;17.63;53.84
56831;BME280;42713;42.676;23.352;2023-05-08T08:50:13;94945.84;;;17.79;54.68
56831;BME280;42713;42.676;23.352;2023-05-08T08:55:19;94943.59;;;17.91;54.10
56831;BME280;42713;42.676;23.352;2023-05-08T09:00:50;94935.06;;;17.99;53.55
56831;BME280;42713;42.676;23.352;2023-05-08T09:03:15;94930.69;;;18.09;52.81
56831;BME280;42713;42.676;23.352;2023-05-08T09:05:42;94923.34;;;18.06;52.42
56831;BME280;42713;42.676;23.352;2023-05-08T09:08:09;94924.41;;;18.04;53.17
56831;BME280;42713;42.676;23.352;2023-05-08T09:10:37;94923.47;;;18.14;55.17
56831;BME280;42713;42.676;23.352;2023-05-08T09:13:03;94922.78;;;18.28;56.42
56831;BME280;42713;42.676;23.352;2023-05-08T09:15:31;94915.25;;;18.35;55.57
56831;BME280;42713;42.676;23.352;2023-05-08T09:17:57;94914.03;;;18.46;55.86
56831;BME280;42713;42.676;23.352;2023-05-08T09:20:23;94910.16;;;18.58;55.68
56831;BME280;42713;42.676;23.352;2023-05-08T09:22:50;94899.66;;;18.66;56.09
56831;BME280;42713;42.676;23.352;2023-05-08T09:25:15;94897.16;;;18.75;55.60
56831;BME280;42713;42.676;23.352;2023-05-08T09:27:45;94880.88;;;18.82;56.31
56831;BME280;42713;42.676;23.352;2023-05-08T09:30:12;94881.78;;;18.91;56.10
56831;BME280;42713;42.676;23.352;2023-05-08T09:32:42;94880.84;;;19.01;55.83
56831;BME280;42713;42.676;23.352;2023-05-08T09:35:09;94881.47;;;19.12;54.41
56831;BME280;42713;42.676;23.352;2023-05-08T09:37:39;94882.66;;;19.20;54.88
56831;BME280;42713;42.676;23.352;2023-05-08T09:40:17;94886.22;;;19.29;55.28
56831;BME280;42713;42.676;23.352;2023-05-08T09:42:42;94899.09;;;19.36;53.11
56831;BME280;42713;42.676;23.352;2023-05-08T09:45:08;94900.09;;;19.40;52.49
56831;BME280;42713;42.676;23.352;2023-05-08T09:47:34;94906.09;;;19.46;52.17
56831;BME280;42713;42.676;23.352;2023-05-08T09:52:30;94911.28;;;19.37;51.09
56831;BME280;42713;42.676;23.352;2023-05-08T09:57:31;94910.00;;;19.34;50.21
56831;BME280;42713;42.676;23.352;2023-05-08T10:00:10;94905.28;;;19.31;51.52
56831;BME280;42713;42.676;23.352;2023-05-08T10:02:38;94904.41;;;19.36;50.99
56831;BME280;42713;42.676;23.352;2023-05-08T10:05:30;94895.84;;;19.39;51.72
56831;BME280;42713;42.676;23.352;2023-05-08T10:08:18;94891.94;;;19.50;51.49
56831;BME280;42713;42.676;23.352;2023-05-08T10:10:44;94891.63;;;19.66;52.17
56831;BME280;42713;42.676;23.352;2023-05-08T10:13:10;94895.16;;;19.75;50.80
56831;BME280;42713;42.676;23.352;2023-05-08T10:15:37;94898.63;;;19.62;50.32
56831;BME280;42713;42.676;23.352;2023-05-08T10:18:06;94889.09;;;19.60;50.40
56831;BME280;42713;42.676;23.352;2023-05-08T10:20:34;94888.38;;;19.69;50.71
56831;BME280;42713;42.676;23.352;2023-05-08T10:23:00;94878.13;;;19.76;49.90
56831;BME280;42713;42.676;23.352;2023-05-08T10:25:31;94883.78;;;19.88;51.02
56831;BME280;42713;42.676;23.352;2023-05-08T10:28:17;94877.25;;;19.95;49.58
56831;BME280;42713;42.676;23.352;2023-05-08T10:30:49;94869.28;;;19.81;49.04
56831;BME280;42713;42.676;23.352;2023-05-08T10:33:19;94876.13;;;19.87;49.39
56831;BME280;42713;42.676;23.352;2023-05-08T10:35:45;94867.34;;;19.86;50.25
56831;BME280;42713;42.676;23.352;2023-05-08T10:38:11;94884.16;;;19.96;50.54
56831;BME280;42713;42.676;23.352;2023-05-08T10:40:37;94876.38;;;19.85;49.53
56831;BME280;42713;42.676;23.352;2023-05-08T10:43:05;94864.78;;;19.81;49.67
56831;BME280;42713;42.676;23.352;2023-05-08T10:45:32;94870.56;;;19.83;50.51
56831;BME280;42713;42.676;23.352;2023-05-08T10:53:48;94850.63;;;19.86;51.39
56831;BME280;42713;42.676;23.352;2023-05-08T10:56:15;94854.72;;;19.92;50.49
56831;BME280;42713;42.676;23.352;2023-05-08T10:58:41;94851.31;;;19.92;48.83
56831;BME280;42713;42.676;23.352;2023-05-08T11:03:38;94848.69;;;20.00;49.50
56831;BME280;42713;42.676;23.352;2023-05-08T11:06:04;94842.91;;;19.98;49.38
56831;BME280;42713;42.676;23.352;2023-05-08T11:08:30;94844.56;;;20.08;48.84
56831;BME280;42713;42.676;23.352;2023-05-08T11:16:03;94832.19;;;20.26;48.41
56831;BME280;42713;42.676;23.352;2023-05-08T11:18:30;94826.84;;;20.40;48.45
56831;BME280;42713;42.676;23.352;2023-05-08T11:21:02;94820.78;;;20.71;49.42
56831;BME280;42713;42.676;23.352;2023-05-08T11:23:29;94811.69;;;20.95;49.24
56831;BME280;42713;42.676;23.352;2023-05-08T11:26:14;94811.97;;;21.25;48.46
56831;BME280;42713;42.676;23.352;2023-05-08T11:31:18;94801.47;;;21.60;45.92
56831;BME280;42713;42.676;23.352;2023-05-08T11:33:45;94798.03;;;21.68;46.38
56831;BME280;42713;42.676;23.352;2023-05-08T11:36:14;94797.72;;;21.79;45.15
56831;BME280;42713;42.676;23.352;2023-05-08T11:38:41;94793.31;;;21.83;45.03
56831;BME280;42713;42.676;23.352;2023-05-08T11:41:08;94785.97;;;21.88;44.15
56831;BME280;42713;42.676;23.352;2023-05-08T11:46:13;94769.66;;;21.81;43.48
56831;BME280;42713;42.676;23.352;2023-05-08T11:48:39;94770.44;;;21.90;43.11
56831;BME280;42713;42.676;23.352;2023-05-08T11:51:05;94765.59;;;21.92;42.96
56831;BME280;42713;42.676;23.352;2023-05-08T11:53:31;94760.72;;;22.03;43.90
56831;BME280;42713;42.676;23.352;2023-05-08T11:55:58;94761.34;;;22.18;42.22
56831;BME280;42713;42.676;23.352;2023-05-08T11:58:24;94758.34;;;22.28;42.90
56831;BME280;42713;42.676;23.352;2023-05-08T12:00:49;94740.31;;;22.43;42.71
56831;BME280;42713;42.676;23.352;2023-05-08T12:03:17;94740.88;;;22.66;41.19
56831;BME280;42713;42.676;23.352;2023-05-08T12:05:42;94757.47;;;22.80;40.96
56831;BME280;42713;42.676;23.352;2023-05-08T12:08:10;94741.19;;;22.64;39.85
56831;BME280;42713;42.676;23.352;2023-05-08T12:10:55;94741.34;;;22.68;40.18
56831;BME280;42713;42.676;23.352;2023-05-08T12:13:24;94746.06;;;22.53;40.21
56831;BME280;42713;42.676;23.352;2023-05-08T12:15:58;94742.78;;;22.39;40.47
56831;BME280;42713;42.676;23.352;2023-05-08T12:18:26;94749.72;;;22.40;41.65
56831;BME280;42713;42.676;23.352;2023-05-08T12:20:57;94746.41;;;22.52;41.24
56831;BME280;42713;42.676;23.352;2023-05-08T12:23:27;94730.63;;;22.77;41.18
56831;BME280;42713;42.676;23.352;2023-05-08T12:25:59;94740.06;;;22.74;41.02
56831;BME280;42713;42.676;23.352;2023-05-08T12:28:25;94744.00;;;22.77;39.57
56831;BME280;42713;42.676;23.352;2023-05-08T12:30:52;94730.09;;;22.92;39.51
56831;BME280;42713;42.676;23.352;2023-05-08T12:33:19;94730.50;;;23.03;39.42
56831;BME280;42713;42.676;23.352;2023-05-08T12:35:45;94724.06;;;23.04;38.32
56831;BME280;42713;42.676;23.352;2023-05-08T12:38:10;94726.66;;;22.92;38.39
56831;BME280;42713;42.676;23.352;2023-05-08T12:40:46;94727.50;;;22.75;39.19
56831;BME280;42713;42.676;23.352;2023-05-08T12:43:17;94720.38;;;22.88;38.89
56831;BME280;42713;42.676;23.352;2023-05-08T12:45:43;94727.03;;;23.11;38.97
56831;BME280;42713;42.676;23.352;2023-05-08T12:48:10;94742.78;;;23.04;38.45
56831;BME280;42713;42.676;23.352;2023-05-08T12:50:44;94726.34;;;22.84;38.80
56831;BME280;42713;42.676;23.352;2023-05-08T12:53:17;94728.19;;;22.63;39.71
56831;BME280;42713;42.676;23.352;2023-05-08T12:58:19;94720.34;;;22.49;40.18
56831;BME280;42713;42.676;23.352;2023-05-08T13:00:47;94708.72;;;22.36;40.50
56831;BME280;42713;42.676;23.352;2023-05-08T13:03:22;94715.03;;;22.40;40.73
56831;BME280;42713;42.676;23.352;2023-05-08T13:05:51;94708.78;;;22.18;40.21
56831;BME280;42713;42.676;23.352;2023-05-08T13:08:17;94715.97;;;22.27;43.18
56831;BME280;42713;42.676;23.352;2023-05-08T13:10:53;94715.03;;;22.31;44.03
56831;BME280;42713;42.676;23.352;2023-05-08T13:13:22;94727.75;;;22.26;44.81
56831;BME280;42713;42.676;23.352;2023-05-08T13:15:49;94733.72;;;22.14;45.44
56831;BME280;42713;42.676;23.352;2023-05-08T13:18:19;94745.16;;;22.14;45.73
56831;BME280;42713;42.676;23.352;2023-05-08T13:20:45;94750.19;;;22.24;45.99
56831;BME280;42713;42.676;23.352;2023-05-08T13:23:12;94745.97;;;22.23;45.86
56831;BME280;42713;42.676;23.352;2023-05-08T13:25:39;94745.78;;;22.20;46.43
56831;BME280;42713;42.676;23.352;2023-05-08T13:28:06;94744.53;;;22.17;46.30
56831;BME280;42713;42.676;23.352;2023-05-08T13:30:33;94764.94;;;22.04;45.80
56831;BME280;42713;42.676;23.352;2023-05-08T13:32:59;94753.19;;;21.97;46.39
56831;BME280;42713;42.676;23.352;2023-05-08T13:35:25;94759.44;;;21.92;46.07
56831;BME280;42713;42.676;23.352;2023-05-08T13:37:52;94764.97;;;21.87;46.90
56831;BME280;42713;42.676;23.352;2023-05-08T13:40:18;94772.94;;;21.78;47.41
56831;BME280;42713;42.676;23.352;2023-05-08T13:42:43;94776.34;;;21.61;47.30
56831;BME280;42713;42.676;23.352;2023-05-08T13:45:11;94778.81;;;21.49;47.39
56831;BME280;42713;42.676;23.352;2023-05-08T13:47:39;94785.41;;;21.51;48.41
56831;BME280;42713;42.676;23.352;2023-05-08T13:50:06;94788.84;;;21.52;48.87